Time;durP1;ratioP1;P1;durP2;ratioP2;P2;SDS_P1;SDS_P2;PMS_P1;PMS_P2;Temp;Humidity;BMP_temperature;BMP_pressure;BME280_temperature;BME280_humidity;BME280_pressure;Samples;Min_cycle;Max_cycle;Signal;HPM_P1;HPM_P2
2022/11/04 00:01:21;;;;;;;0.40;0.40;;;12.90;99.90;;;;;;4995377;28;20663;-63
2022/11/04 00:03:49;;;;;;;0.57;0.57;;;12.90;99.90;;;;;;4998986;28;20211;-66
2022/11/04 00:06:16;;;;;;;0.63;0.63;;;12.80;99.90;;;;;;4993267;28;20690;-63
2022/11/04 00:08:47;;;;;;;0.20;0.20;;;12.90;99.90;;;;;;4999422;28;20243;-63
2022/11/04 00:13:58;;;;;;;0.70;0.70;;;12.90;99.90;;;;;;4994824;28;20243;-64
2022/11/04 00:19:11;;;;;;;0.60;0.60;;;12.90;99.90;;;;;;4988780;28;20200;-64
2022/11/04 00:29:57;;;;;;;0.70;0.70;;;12.90;99.90;;;;;;4992229;28;20240;-62
2022/11/04 00:35:10;;;;;;;0.50;0.50;;;12.90;99.90;;;;;;4986570;28;20224;-64
2022/11/04 00:37:38;;;;;;;0.50;0.50;;;12.90;99.90;;;;;;4996198;28;20213;-63
2022/11/04 00:40:07;;;;;;;0.60;0.60;;;12.90;99.90;;;;;;4996193;28;20700;-63
2022/11/04 00:42:34;;;;;;;0.60;0.60;;;12.90;99.90;;;;;;4996002;28;20206;-63
2022/11/04 00:45:00;;;;;;;0.60;0.60;;;12.90;99.90;;;;;;4995163;28;20224;-63
2022/11/04 00:47:27;;;;;;;0.50;0.50;;;12.80;99.90;;;;;;4996214;28;20208;-63
2022/11/04 00:49:54;;;;;;;0.40;0.40;;;12.80;99.90;;;;;;4996303;28;20587;-63
2022/11/04 00:52:23;;;;;;;0.47;0.47;;;12.80;99.90;;;;;;4995839;28;20197;-63
2022/11/04 00:54:49;;;;;;;0.40;0.40;;;12.80;99.90;;;;;;4994690;28;20232;-63
2022/11/04 00:57:16;;;;;;;0.50;0.50;;;12.70;99.90;;;;;;4995873;28;20206;-62
2022/11/04 00:59:44;;;;;;;0.30;0.30;;;12.80;99.90;;;;;;4995609;28;20206;-63
2022/11/04 01:02:12;;;;;;;0.40;0.40;;;12.70;99.90;;;;;;4995451;28;20581;-63
2022/11/04 01:04:39;;;;;;;0.30;0.30;;;12.70;99.90;;;;;;4994924;28;20568;-62
2022/11/04 01:07:06;;;;;;;0.50;0.50;;;12.80;99.90;;;;;;4995930;28;20202;-62
2022/11/04 01:09:34;;;;;;;0.37;0.37;;;12.70;99.90;;;;;;4995413;28;20209;-63
2022/11/04 01:12:01;;;;;;;0.50;0.50;;;12.70;99.90;;;;;;4995300;28;20208;-63
2022/11/04 01:14:28;;;;;;;0.40;0.40;;;12.60;99.90;;;;;;4994728;28;20256;-62
2022/11/04 01:16:55;;;;;;;0.37;0.37;;;12.60;99.90;;;;;;4995486;28;20233;-62
2022/11/04 01:19:22;;;;;;;0.47;0.47;;;12.50;99.90;;;;;;4995548;28;20198;-63
2022/11/04 01:21:51;;;;;;;0.57;0.40;;;12.50;99.90;;;;;;4995349;28;20208;-63
2022/11/04 01:24:18;;;;;;;0.53;0.53;;;12.60;99.90;;;;;;4994323;28;20218;-62
2022/11/04 01:26:47;;;;;;;0.30;0.30;;;12.50;99.90;;;;;;4995376;28;20648;-63
2022/11/04 01:29:14;;;;;;;0.30;0.30;;;12.50;99.90;;;;;;4995368;28;20203;-62
2022/11/04 01:31:40;;;;;;;0.40;0.40;;;12.50;99.90;;;;;;4995407;28;20575;-63
2022/11/04 01:34:07;;;;;;;0.37;0.37;;;12.50;99.90;;;;;;4994629;28;20217;-63
2022/11/04 01:36:34;;;;;;;0.27;0.27;;;12.50;99.90;;;;;;4994974;28;20229;-62
2022/11/04 01:39:01;;;;;;;0.40;0.40;;;12.50;99.90;;;;;;4997368;28;20202;-62
2022/11/04 01:41:30;;;;;;;0.20;0.20;;;12.50;99.90;;;;;;4995973;28;20268;-62
2022/11/04 01:44:00;;;;;;;0.73;0.40;;;12.50;99.90;;;;;;4994083;28;20313;-62
2022/11/04 01:46:36;;;;;;;0.30;0.30;;;12.50;99.90;;;;;;4994106;28;20197;-63
2022/11/04 01:49:14;;;;;;;0.53;0.53;;;12.30;99.90;;;;;;4991281;28;20224;-64
2022/11/04 01:51:43;;;;;;;0.20;0.20;;;12.30;99.90;;;;;;4995958;28;20668;-63
2022/11/04 01:54:11;;;;;;;0.30;0.30;;;12.30;99.90;;;;;;4994227;28;20226;-62
2022/11/04 01:56:39;;;;;;;1.20;0.67;;;12.30;99.90;;;;;;4994902;28;20226;-64
2022/11/04 01:59:15;;;;;;;0.60;0.60;;;12.30;99.90;;;;;;4995068;28;20202;-62
2022/11/04 02:01:43;;;;;;;0.50;0.50;;;12.30;99.90;;;;;;4994592;28;20699;-62
2022/11/04 02:04:25;;;;;;;0.40;0.27;;;12.30;99.90;;;;;;4994069;28;20592;-63
2022/11/04 02:06:57;;;;;;;0.40;0.30;;;12.30;99.90;;;;;;4994433;28;20260;-62
2022/11/04 02:09:27;;;;;;;0.50;0.50;;;12.20;99.90;;;;;;4995513;28;20285;-61
2022/11/04 02:14:40;;;;;;;0.47;0.47;;;12.10;99.90;;;;;;4993361;28;20240;-62
2022/11/04 02:17:18;;;;;;;0.40;0.40;;;12.10;99.90;;;;;;4987022;28;20260;-63
2022/11/04 02:20:12;;;;;;;0.40;0.40;;;12.00;99.90;;;;;;4994186;28;20202;-63
2022/11/04 02:23:16;;;;;;;0.60;0.60;;;11.90;99.90;;;;;;4994224;28;20202;-62
2022/11/04 02:26:17;;;;;;;0.30;0.30;;;11.80;99.90;;;;;;4993464;28;20224;-67
2022/11/04 02:29:15;;;;;;;0.30;0.30;;;11.70;99.90;;;;;;4993877;28;20206;-62
2022/11/04 02:31:52;;;;;;;0.30;0.30;;;11.60;99.90;;;;;;4974135;28;20289;-63
2022/11/04 02:34:26;;;;;;;0.40;0.40;;;11.60;99.90;;;;;;4993138;28;20226;-63
2022/11/04 02:37:02;;;;;;;0.40;0.40;;;11.60;99.90;;;;;;4994103;28;20599;-64
2022/11/04 02:39:36;;;;;;;0.40;0.40;;;11.60;99.90;;;;;;4994016;28;20198;-62
2022/11/04 02:42:12;;;;;;;0.50;0.50;;;11.60;99.90;;;;;;4994098;28;20197;-62
2022/11/04 02:44:46;;;;;;;0.43;0.43;;;11.50;99.90;;;;;;4986109;28;20316;-63
2022/11/04 02:47:16;;;;;;;0.50;0.50;;;11.50;99.90;;;;;;4993737;28;20208;-63
2022/11/04 02:49:50;;;;;;;0.60;0.60;;;11.60;99.90;;;;;;4993352;28;20202;-62
2022/11/04 02:52:22;;;;;;;0.37;0.37;;;11.60;99.90;;;;;;4993748;28;20212;-64
2022/11/04 02:54:53;;;;;;;0.50;0.50;;;11.60;99.90;;;;;;4993656;28;20233;-62
2022/11/04 02:57:24;;;;;;;0.40;0.40;;;11.50;99.90;;;;;;4993083;28;20224;-62
2022/11/04 02:59:55;;;;;;;0.40;0.40;;;11.50;99.90;;;;;;4993760;28;20210;-62
2022/11/04 03:02:27;;;;;;;0.37;0.37;;;11.50;99.90;;;;;;4993820;28;20730;-62
2022/11/04 03:04:57;;;;;;;0.63;0.63;;;11.40;99.90;;;;;;4992028;28;20622;-62
2022/11/04 03:07:27;;;;;;;0.40;0.40;;;11.30;99.90;;;;;;4993700;28;20193;-62
2022/11/04 03:10:00;;;;;;;0.40;0.40;;;11.30;99.90;;;;;;4993970;28;20201;-63
2022/11/04 03:12:31;;;;;;;0.37;0.37;;;11.30;99.90;;;;;;4993299;28;20661;-63
2022/11/04 03:15:04;;;;;;;0.57;0.57;;;11.20;99.90;;;;;;4992037;28;20238;-63
2022/11/04 03:17:37;;;;;;;0.50;0.50;;;11.20;99.90;;;;;;4992414;28;20214;-63
2022/11/04 03:20:09;;;;;;;0.50;0.50;;;11.20;99.90;;;;;;4993692;28;20198;-63
2022/11/04 03:22:37;;;;;;;0.50;0.50;;;11.10;99.90;;;;;;4992813;28;20206;-63
2022/11/04 03:25:06;;;;;;;0.40;0.40;;;11.00;99.90;;;;;;4992594;28;20588;-63
2022/11/04 03:27:42;;;;;;;0.57;0.30;;;11.00;99.90;;;;;;4993353;28;20304;-62
2022/11/04 03:30:13;;;;;;;0.50;0.50;;;10.90;99.90;;;;;;4993002;28;20210;-63
2022/11/04 03:32:49;;;;;;;0.53;0.53;;;10.80;99.90;;;;;;4989793;28;20208;-62
2022/11/04 03:35:17;;;;;;;0.40;0.40;;;10.80;99.90;;;;;;4992869;28;20225;-62
2022/11/04 03:37:44;;;;;;;0.60;0.60;;;10.80;99.90;;;;;;4992767;28;20225;-62
2022/11/04 03:40:13;;;;;;;0.43;0.43;;;10.70;99.90;;;;;;4992900;28;20210;-63
2022/11/04 03:42:45;;;;;;;0.53;0.53;;;10.70;99.90;;;;;;4992033;28;20206;-62
2022/11/04 03:45:13;;;;;;;0.33;0.33;;;10.70;99.90;;;;;;4992708;28;20225;-63
2022/11/04 03:47:42;;;;;;;0.50;0.50;;;10.60;99.90;;;;;;4992484;28;20582;-63
2022/11/04 03:50:12;;;;;;;0.50;0.50;;;10.60;99.90;;;;;;4992803;28;20198;-64
2022/11/04 03:52:39;;;;;;;0.73;0.73;;;10.50;99.90;;;;;;4991862;28;20663;-64
2022/11/04 03:55:08;;;;;;;0.60;0.60;;;10.60;99.90;;;;;;4992679;28;20309;-64
2022/11/04 03:57:49;;;;;;;0.50;0.50;;;10.60;99.90;;;;;;4992216;28;20226;-63
2022/11/04 04:00:17;;;;;;;0.50;0.50;;;10.60;99.90;;;;;;4986065;28;20731;-62
2022/11/04 04:02:55;;;;;;;0.50;0.50;;;10.60;99.90;;;;;;4991676;28;20213;-62
2022/11/04 04:05:27;;;;;;;0.40;0.40;;;10.60;99.90;;;;;;4992161;28;20645;-62
2022/11/04 04:07:59;;;;;;;0.50;0.50;;;10.70;99.90;;;;;;4992682;28;20208;-62
2022/11/04 04:10:39;;;;;;;0.30;0.30;;;10.60;99.90;;;;;;4991741;28;20564;-62
2022/11/04 04:13:18;;;;;;;0.60;0.60;;;10.60;99.90;;;;;;4987943;28;20667;-62
2022/11/04 04:15:53;;;;;;;0.33;0.33;;;10.60;99.90;;;;;;4993997;28;20230;-63
2022/11/04 04:18:29;;;;;;;0.63;0.50;;;10.50;99.90;;;;;;4993030;28;20735;-63
2022/11/04 04:20:58;;;;;;;1.10;1.10;;;10.50;99.90;;;;;;4992411;28;20206;-64
2022/11/04 04:29:03;;;;;;;0.80;0.80;;;10.30;99.90;;;;;;4991825;28;20333;-63
2022/11/04 04:31:50;;;;;;;0.60;0.60;;;10.30;99.90;;;;;;4992428;28;20594;-63
2022/11/04 04:34:21;;;;;;;0.50;0.50;;;10.30;99.90;;;;;;4985589;28;20261;-65
2022/11/04 04:36:53;;;;;;;0.50;0.50;;;10.40;99.90;;;;;;4992230;28;20216;-64
2022/11/04 04:45:03;;;;;;;0.50;0.50;;;10.20;99.90;;;;;;4991305;28;20237;-63
2022/11/04 04:47:36;;;;;;;0.50;0.50;;;10.20;99.90;;;;;;4994704;28;20210;-63
2022/11/04 04:50:06;;;;;;;0.50;0.50;;;10.20;99.90;;;;;;4992307;28;20204;-62
2022/11/04 04:52:36;;;;;;;0.63;0.63;;;10.10;99.90;;;;;;4993772;28;20210;-63
2022/11/04 04:55:04;;;;;;;0.53;0.53;;;10.20;99.90;;;;;;4999957;28;20222;-62
2022/11/04 04:57:31;;;;;;;2.67;0.60;;;10.30;99.90;;;;;;4996937;28;20339;-62
2022/11/04 04:59:58;;;;;;;0.57;0.57;;;10.30;99.90;;;;;;4995963;28;20214;-64
2022/11/04 05:02:25;;;;;;;0.60;0.60;;;10.30;99.90;;;;;;4994798;28;20573;-64
2022/11/04 05:04:52;;;;;;;0.50;0.50;;;10.30;99.90;;;;;;4991915;28;20230;-64
2022/11/04 05:07:20;;;;;;;0.60;0.60;;;10.40;99.90;;;;;;4992688;28;20317;-63
2022/11/04 05:09:47;;;;;;;0.43;0.43;;;10.30;99.90;;;;;;4992412;28;20218;-63
2022/11/04 05:12:14;;;;;;;0.50;0.50;;;10.30;99.90;;;;;;4992062;28;20676;-64
2022/11/04 05:14:40;;;;;;;0.50;0.50;;;10.30;99.90;;;;;;4994477;28;20233;-64
2022/11/04 05:17:07;;;;;;;0.40;0.40;;;10.30;99.90;;;;;;4991873;28;20226;-64
2022/11/04 05:19:34;;;;;;;0.63;0.63;;;10.30;99.90;;;;;;4991615;28;20210;-64
2022/11/04 05:22:01;;;;;;;0.60;0.60;;;10.30;99.90;;;;;;4994557;28;20202;-62
2022/11/04 05:24:29;;;;;;;0.53;0.53;;;10.20;99.90;;;;;;4994837;28;20329;-63
2022/11/04 05:26:56;;;;;;;0.43;0.43;;;10.20;99.90;;;;;;4996289;28;20206;-65
2022/11/04 05:29:23;;;;;;;0.60;0.60;;;10.20;99.90;;;;;;4995370;28;20210;-64
2022/11/04 05:31:49;;;;;;;0.50;0.50;;;10.20;99.90;;;;;;4994693;28;20202;-64
2022/11/04 05:34:16;;;;;;;0.60;0.60;;;10.20;99.90;;;;;;4994151;28;20610;-64
2022/11/04 05:36:43;;;;;;;0.53;0.53;;;10.20;99.90;;;;;;4994977;28;20226;-65
2022/11/04 05:39:13;;;;;;;0.70;0.70;;;10.10;99.90;;;;;;4995513;28;20206;-65
2022/11/04 05:41:41;;;;;;;0.60;0.60;;;10.10;99.90;;;;;;4994969;28;20201;-64
2022/11/04 05:44:10;;;;;;;0.40;0.40;;;10.10;99.90;;;;;;4994305;28;20221;-65
2022/11/04 05:46:37;;;;;;;0.60;0.60;;;10.10;99.90;;;;;;4994688;28;20224;-63
2022/11/04 05:49:04;;;;;;;0.30;0.30;;;10.00;99.90;;;;;;4992187;28;20202;-63
2022/11/04 05:51:31;;;;;;;0.50;0.50;;;10.10;99.90;;;;;;4994278;28;20225;-63
2022/11/04 05:53:58;;;;;;;0.50;0.50;;;10.10;99.90;;;;;;4994119;28;20282;-63
2022/11/04 05:56:24;;;;;;;0.50;0.50;;;10.10;99.90;;;;;;4994378;28;20202;-62
2022/11/04 05:58:53;;;;;;;0.40;0.40;;;10.10;99.90;;;;;;4994297;28;20206;-63
2022/11/04 06:01:31;;;;;;;0.60;0.60;;;10.10;99.90;;;;;;4988395;28;20241;-64
2022/11/04 06:03:59;;;;;;;0.50;0.50;;;10.10;99.90;;;;;;4993379;28;20229;-62
2022/11/04 06:06:28;;;;;;;0.83;0.60;;;10.10;99.90;;;;;;4989675;28;20576;-63
2022/11/04 06:08:55;;;;;;;0.60;0.60;;;10.00;99.90;;;;;;4994106;28;20208;-62
2022/11/04 06:11:24;;;;;;;0.50;0.50;;;10.00;99.90;;;;;;4994573;28;20202;-62
2022/11/04 06:13:54;;;;;;;0.50;0.50;;;10.10;99.90;;;;;;4993675;28;20210;-62
2022/11/04 06:16:21;;;;;;;0.40;0.40;;;10.10;99.90;;;;;;4994215;28;20212;-62
2022/11/04 06:18:47;;;;;;;0.47;0.47;;;10.10;99.90;;;;;;4994124;28;20212;-63
2022/11/04 06:21:28;;;;;;;0.53;0.53;;;10.20;99.90;;;;;;4994043;28;20600;-62
2022/11/04 06:23:56;;;;;;;0.40;0.40;;;10.20;99.90;;;;;;4993303;28;20225;-61
2022/11/04 06:26:23;;;;;;;0.40;0.40;;;10.30;99.90;;;;;;4994236;28;20206;-62
2022/11/04 06:28:52;;;;;;;0.50;0.50;;;10.30;99.90;;;;;;4993892;28;20202;-62
2022/11/04 06:31:19;;;;;;;0.60;0.60;;;10.30;99.90;;;;;;4994060;28;20205;-62
2022/11/04 06:33:46;;;;;;;0.50;0.50;;;10.30;99.90;;;;;;4991944;28;20249;-62
2022/11/04 06:36:15;;;;;;;0.60;0.60;;;10.40;99.90;;;;;;4993609;28;20202;-61
2022/11/04 06:38:42;;;;;;;0.70;0.70;;;10.40;99.90;;;;;;4993795;28;20230;-61
2022/11/04 06:41:12;;;;;;;0.60;0.60;;;10.40;99.90;;;;;;5000459;28;20293;-63
2022/11/04 06:43:38;;;;;;;0.50;0.50;;;10.40;99.90;;;;;;4993222;28;20217;-63
2022/11/04 06:46:23;;;;;;;0.80;0.80;;;10.50;99.90;;;;;;4994455;28;20208;-62
2022/11/04 06:48:50;;;;;;;0.60;0.60;;;10.40;99.90;;;;;;4995037;28;20210;-62
2022/11/04 06:51:16;;;;;;;0.67;0.67;;;10.50;99.90;;;;;;4995296;28;20224;-62
2022/11/04 06:53:43;;;;;;;0.70;0.70;;;10.50;99.90;;;;;;4993885;28;20224;-61
2022/11/04 06:56:10;;;;;;;0.60;0.60;;;10.50;99.90;;;;;;4994963;28;20206;-62
2022/11/04 06:58:37;;;;;;;0.60;0.60;;;10.60;99.90;;;;;;4994408;28;20232;-61
2022/11/04 07:01:04;;;;;;;1.23;1.13;;;10.60;99.90;;;;;;4989616;28;20571;-62
2022/11/04 07:03:32;;;;;;;0.57;0.57;;;10.60;99.90;;;;;;4992260;28;20677;-62
2022/11/04 07:05:59;;;;;;;0.60;0.60;;;10.70;99.90;;;;;;4995940;28;20580;-63
2022/11/04 07:08:26;;;;;;;0.83;0.67;;;10.80;99.90;;;;;;4992699;28;20202;-62
2022/11/04 07:10:55;;;;;;;0.53;0.53;;;10.80;99.90;;;;;;4996532;28;20252;-62
2022/11/04 07:13:21;;;;;;;0.60;0.60;;;10.80;99.90;;;;;;4994763;28;20206;-63
2022/11/04 07:15:48;;;;;;;0.87;0.87;;;10.90;99.90;;;;;;4995571;28;20234;-62
2022/11/04 07:18:15;;;;;;;0.60;0.60;;;10.90;99.90;;;;;;4996566;28;20224;-63
2022/11/04 07:20:43;;;;;;;0.80;0.80;;;11.00;99.90;;;;;;4996221;28;20237;-63
2022/11/04 07:23:10;;;;;;;0.50;0.50;;;11.00;99.90;;;;;;4997833;28;20665;-63
2022/11/04 07:25:37;;;;;;;0.80;0.80;;;11.00;99.90;;;;;;4995831;28;20229;-62
2022/11/04 07:28:04;;;;;;;0.70;0.70;;;11.10;99.90;;;;;;4986052;28;20207;-63
2022/11/04 07:30:31;;;;;;;0.60;0.60;;;11.10;99.90;;;;;;4994776;28;20217;-63
2022/11/04 07:32:58;;;;;;;0.60;0.60;;;11.10;99.90;;;;;;4993066;28;20206;-63
2022/11/04 07:35:25;;;;;;;0.70;0.70;;;11.20;99.90;;;;;;4993721;28;20232;-63
2022/11/04 07:37:54;;;;;;;0.80;0.70;;;11.20;99.90;;;;;;4993617;28;20225;-63
2022/11/04 07:40:21;;;;;;;0.57;0.57;;;11.30;99.90;;;;;;4993371;28;20198;-63
2022/11/04 07:42:48;;;;;;;0.67;0.67;;;11.30;99.90;;;;;;4992126;28;20206;-63
2022/11/04 07:45:15;;;;;;;0.63;0.60;;;11.30;99.90;;;;;;4992584;28;20221;-63
2022/11/04 07:47:42;;;;;;;0.70;0.70;;;11.40;99.90;;;;;;4992070;28;20210;-63
2022/11/04 07:50:11;;;;;;;1.27;0.63;;;11.40;99.90;;;;;;5007454;23;20679;-65
2022/11/04 07:52:37;;;;;;;0.70;0.70;;;11.50;99.90;;;;;;5008255;28;20217;-65
2022/11/04 07:55:07;;;;;;;0.70;0.70;;;11.60;99.90;;;;;;5014371;28;20197;-67
2022/11/04 07:57:33;;;;;;;1.03;0.90;;;11.60;99.90;;;;;;5013177;28;20236;-66
2022/11/04 08:00:00;;;;;;;0.97;0.87;;;11.70;99.90;;;;;;5013512;28;20205;-67
2022/11/04 08:02:27;;;;;;;0.60;0.60;;;11.70;99.90;;;;;;5009389;28;20284;-66
2022/11/04 08:04:54;;;;;;;0.80;0.80;;;11.70;99.90;;;;;;5011180;28;20671;-66
2022/11/04 08:07:21;;;;;;;0.70;0.70;;;11.80;99.90;;;;;;5011394;28;20198;-67
2022/11/04 08:09:48;;;;;;;0.73;0.73;;;11.80;99.90;;;;;;5012681;28;20567;-66
2022/11/04 08:12:16;;;;;;;0.87;0.87;;;11.80;99.90;;;;;;5008432;28;20229;-66
2022/11/04 08:14:43;;;;;;;0.60;0.60;;;11.90;99.90;;;;;;5011727;28;20217;-67
2022/11/04 08:17:10;;;;;;;0.80;0.80;;;12.00;99.90;;;;;;5012259;28;20281;-67
2022/11/04 08:19:37;;;;;;;0.70;0.70;;;12.20;99.90;;;;;;5008671;28;20209;-66
2022/11/04 08:22:04;;;;;;;1.20;0.90;;;12.00;99.90;;;;;;5012010;28;20244;-67
2022/11/04 08:24:30;;;;;;;0.80;0.80;;;12.10;99.90;;;;;;5013199;28;20288;-66
2022/11/04 08:26:57;;;;;;;0.80;0.80;;;12.20;99.90;;;;;;5008972;28;20911;-67
2022/11/04 08:29:25;;;;;;;0.80;0.80;;;12.30;99.90;;;;;;5010597;28;20224;-66
2022/11/04 08:31:52;;;;;;;0.80;0.80;;;12.40;99.90;;;;;;5012288;28;20576;-67
2022/11/04 08:34:19;;;;;;;0.60;0.60;;;12.50;99.90;;;;;;5012641;28;20205;-68
2022/11/04 08:36:46;;;;;;;0.70;0.70;;;12.50;99.90;;;;;;5018617;28;20275;-67
2022/11/04 08:39:13;;;;;;;0.90;0.90;;;12.60;99.90;;;;;;5018451;28;20276;-65
2022/11/04 08:41:44;;;;;;;0.73;0.73;;;12.70;99.90;;;;;;5013820;28;20221;-67
2022/11/04 08:44:13;;;;;;;0.70;0.70;;;12.90;99.90;;;;;;5015698;28;20260;-66
2022/11/04 08:46:42;;;;;;;0.93;0.83;;;13.00;99.90;;;;;;5016446;28;20204;-65
2022/11/04 08:49:10;;;;;;;0.77;0.77;;;13.00;99.90;;;;;;5006606;28;20208;-66
2022/11/04 08:51:39;;;;;;;0.73;0.73;;;13.10;99.90;;;;;;5002108;28;20241;-66
2022/11/04 08:54:07;;;;;;;0.47;0.47;;;13.20;99.90;;;;;;5009465;28;20244;-67
2022/11/04 08:56:36;;;;;;;0.90;0.90;;;13.20;99.90;;;;;;5018163;28;20212;-66
2022/11/04 08:59:04;;;;;;;0.93;0.90;;;13.20;99.90;;;;;;5024526;28;20256;-67
2022/11/04 09:01:32;;;;;;;0.77;0.77;;;13.10;99.90;;;;;;5016578;28;20236;-69
2022/11/04 09:04:01;;;;;;;0.80;0.80;;;13.10;99.90;;;;;;5016262;28;20288;-66
2022/11/04 09:06:30;;;;;;;1.17;1.07;;;13.30;99.90;;;;;;5018316;28;20225;-66
2022/11/04 09:09:02;;;;;;;0.83;0.83;;;13.30;99.90;;;;;;5017697;28;20296;-66
2022/11/04 09:11:30;;;;;;;0.70;0.70;;;13.40;99.90;;;;;;5023668;28;20693;-67
2022/11/04 09:14:00;;;;;;;0.93;0.93;;;13.60;99.90;;;;;;5020706;28;20284;-68
2022/11/04 09:16:27;;;;;;;0.90;0.90;;;13.80;99.90;;;;;;5037186;28;20197;-67
2022/11/04 09:18:55;;;;;;;0.80;0.80;;;13.90;99.90;;;;;;5044161;28;20274;-68
2022/11/04 09:21:24;;;;;;;0.73;0.73;;;13.90;99.90;;;;;;5034932;28;20289;-67
2022/11/04 09:23:51;;;;;;;0.77;0.77;;;13.90;99.90;;;;;;5052355;28;20303;-67
2022/11/04 09:26:18;;;;;;;0.70;0.70;;;14.00;99.90;;;;;;5051631;28;20265;-67
2022/11/04 09:28:45;;;;;;;0.70;0.70;;;14.10;99.90;;;;;;5034335;28;20202;-67
2022/11/04 09:31:14;;;;;;;1.50;0.90;;;14.20;99.90;;;;;;5046724;28;20244;-68
2022/11/04 09:33:41;;;;;;;0.80;0.80;;;14.10;99.90;;;;;;5044600;28;20386;-67
2022/11/04 09:36:09;;;;;;;0.63;0.63;;;14.20;99.90;;;;;;5023685;28;20207;-67
2022/11/04 09:38:38;;;;;;;1.13;1.03;;;14.20;99.90;;;;;;5029226;28;20225;-67
2022/11/04 09:41:21;;;;;;;0.90;0.90;;;14.20;99.90;;;;;;5010227;28;20665;-65
2022/11/04 09:43:57;;;;;;;0.83;0.83;;;14.20;99.90;;;;;;5005952;28;20208;-67
2022/11/04 09:46:24;;;;;;;0.70;0.70;;;14.10;99.90;;;;;;5015246;28;20205;-68
2022/11/04 09:48:55;;;;;;;0.97;0.90;;;14.20;99.90;;;;;;5016758;28;20210;-66
2022/11/04 09:51:25;;;;;;;0.80;0.80;;;14.20;99.90;;;;;;5016137;28;20235;-67
2022/11/04 09:53:58;;;;;;;0.90;0.90;;;14.20;99.90;;;;;;5015360;28;20255;-67
2022/11/04 09:56:30;;;;;;;1.10;0.90;;;14.20;99.90;;;;;;5018952;28;20197;-66
2022/11/04 09:58:57;;;;;;;0.77;0.77;;;14.30;99.90;;;;;;5025424;28;20222;-67
2022/11/04 10:01:31;;;;;;;0.80;0.80;;;14.40;99.90;;;;;;5012856;28;20299;-67
2022/11/04 10:04:13;;;;;;;0.87;0.87;;;14.30;99.90;;;;;;5014761;28;20206;-67
2022/11/04 10:06:52;;;;;;;0.90;0.90;;;14.40;99.90;;;;;;5003622;28;20202;-66
2022/11/04 10:09:32;;;;;;;0.63;0.63;;;14.20;99.90;;;;;;5008459;28;20578;-70
2022/11/04 10:12:15;;;;;;;1.07;1.03;;;14.30;99.90;;;;;;5014743;28;20725;-68
2022/11/04 10:15:12;;;;;;;0.67;0.67;;;14.30;99.90;;;;;;5018828;28;20580;-68
2022/11/04 10:17:55;;;;;;;0.80;0.80;;;14.40;99.90;;;;;;5029117;28;20207;-68
2022/11/04 10:20:33;;;;;;;0.67;0.67;;;14.40;99.90;;;;;;5018336;28;20221;-66
2022/11/04 10:23:13;;;;;;;0.87;0.87;;;14.40;99.90;;;;;;5006699;28;20663;-66
2022/11/04 10:25:48;;;;;;;0.93;0.93;;;14.40;99.90;;;;;;5025155;28;20259;-67
2022/11/04 10:28:17;;;;;;;1.00;1.00;;;14.30;99.90;;;;;;5023772;28;20271;-66
2022/11/04 10:30:48;;;;;;;0.70;0.70;;;14.20;99.90;;;;;;5020731;28;20312;-66
2022/11/04 10:33:25;;;;;;;0.90;0.90;;;14.10;99.90;;;;;;5013962;28;20259;-66
2022/11/04 10:35:57;;;;;;;1.10;1.00;;;14.10;99.90;;;;;;5014498;28;20213;-67
2022/11/04 10:38:33;;;;;;;0.80;0.80;;;14.10;99.90;;;;;;5014340;28;20233;-68
2022/11/04 10:41:02;;;;;;;0.80;0.80;;;14.10;99.90;;;;;;5014124;28;20243;-67
2022/11/04 10:43:37;;;;;;;0.73;0.73;;;14.00;99.90;;;;;;5013899;28;20205;-66
2022/11/04 10:46:19;;;;;;;1.00;0.90;;;14.00;99.90;;;;;;5015280;28;20205;-67
2022/11/04 10:48:51;;;;;;;0.80;0.80;;;14.00;99.90;;;;;;5019217;28;20562;-66
2022/11/04 10:51:22;;;;;;;1.13;1.03;;;14.00;99.90;;;;;;5017759;28;20236;-67
2022/11/04 10:53:54;;;;;;;0.80;0.80;;;13.90;99.90;;;;;;5014974;28;20209;-67
2022/11/04 10:56:31;;;;;;;0.63;0.63;;;13.90;99.90;;;;;;5019454;28;20193;-67
2022/11/04 10:59:07;;;;;;;0.90;0.90;;;13.90;99.90;;;;;;5015805;28;20260;-67
2022/11/04 11:01:35;;;;;;;0.90;0.90;;;13.90;99.90;;;;;;5014297;28;20224;-67
2022/11/04 11:04:07;;;;;;;0.70;0.70;;;13.90;99.90;;;;;;5012961;28;20206;-66
2022/11/04 11:06:35;;;;;;;1.00;1.00;;;13.90;99.90;;;;;;5008406;28;20212;-66
2022/11/04 11:09:14;;;;;;;0.70;0.70;;;14.00;99.90;;;;;;5015619;28;20201;-67
2022/11/04 11:11:46;;;;;;;0.73;0.73;;;14.00;99.90;;;;;;5013640;28;20593;-67
2022/11/04 11:14:18;;;;;;;0.90;0.90;;;14.20;99.90;;;;;;5013100;28;20211;-67
2022/11/04 11:16:47;;;;;;;0.90;0.90;;;14.20;99.90;;;;;;5024505;28;20212;-67
2022/11/04 11:19:17;;;;;;;1.00;1.00;;;14.20;99.90;;;;;;5012838;28;20225;-67
2022/11/04 11:21:46;;;;;;;0.70;0.70;;;14.20;99.90;;;;;;5012998;28;20699;-67
2022/11/04 11:24:18;;;;;;;0.87;0.87;;;14.20;99.90;;;;;;5012732;28;20579;-67
2022/11/04 11:26:48;;;;;;;0.80;0.80;;;14.20;99.90;;;;;;5012994;28;20205;-66
2022/11/04 11:29:26;;;;;;;1.17;1.07;;;14.10;99.90;;;;;;5014690;28;20197;-68
2022/11/04 11:31:54;;;;;;;0.90;0.90;;;14.00;99.90;;;;;;5015277;28;20597;-67
2022/11/04 11:34:26;;;;;;;1.10;0.70;;;14.00;99.90;;;;;;5018603;28;20296;-67
2022/11/04 11:36:55;;;;;;;0.70;0.70;;;14.10;99.90;;;;;;5024889;28;20555;-67
2022/11/04 11:39:24;;;;;;;0.80;0.80;;;14.10;99.90;;;;;;5017599;28;20235;-67
2022/11/04 11:41:56;;;;;;;0.70;0.70;;;14.20;99.90;;;;;;5030582;28;20638;-66
2022/11/04 11:44:30;;;;;;;0.80;0.80;;;14.20;99.90;;;;;;5012633;28;20682;-67
2022/11/04 11:47:00;;;;;;;0.67;0.67;;;14.30;99.90;;;;;;5019172;28;20208;-66
2022/11/04 11:49:29;;;;;;;0.77;0.63;;;14.30;99.90;;;;;;5012673;28;20690;-67
2022/11/04 11:52:16;;;;;;;0.80;0.80;;;14.30;99.90;;;;;;5012750;28;20232;-67
2022/11/04 11:54:45;;;;;;;0.73;0.73;;;14.50;99.90;;;;;;5011645;28;20233;-66
2022/11/04 11:57:31;;;;;;;1.10;1.00;;;14.30;99.90;;;;;;5012182;28;20240;-67
2022/11/04 12:00:05;;;;;;;0.80;0.80;;;14.30;99.90;;;;;;5013691;28;20212;-66
2022/11/04 12:02:39;;;;;;;0.90;0.90;;;14.30;99.90;;;;;;5012840;28;20669;-66
2022/11/04 12:05:09;;;;;;;0.87;0.87;;;14.30;99.90;;;;;;5018245;28;20216;-66
2022/11/04 12:07:44;;;;;;;1.10;1.00;;;14.30;99.90;;;;;;5012976;28;20300;-67
2022/11/04 12:10:21;;;;;;;0.60;0.60;;;14.50;99.90;;;;;;5015833;28;20659;-67
2022/11/04 12:13:03;;;;;;;1.23;1.00;;;14.60;99.90;;;;;;5011901;28;20211;-67
2022/11/04 12:15:40;;;;;;;0.70;0.70;;;14.30;99.90;;;;;;5015522;28;20277;-66
2022/11/04 12:18:25;;;;;;;0.70;0.70;;;14.40;99.90;;;;;;5007198;28;20247;-66
2022/11/04 12:20:58;;;;;;;0.80;0.80;;;14.40;99.90;;;;;;5012433;28;20363;-67
2022/11/04 12:23:29;;;;;;;0.70;0.70;;;14.40;99.90;;;;;;5012071;28;20209;-67
2022/11/04 12:26:11;;;;;;;0.90;0.90;;;14.40;99.90;;;;;;5011833;28;20693;-66
2022/11/04 12:28:51;;;;;;;0.80;0.80;;;14.40;99.90;;;;;;5015856;28;20679;-67
2022/11/04 12:31:29;;;;;;;0.60;0.60;;;14.40;99.90;;;;;;5020455;28;20308;-67
2022/11/04 12:34:06;;;;;;;0.60;0.60;;;14.50;99.90;;;;;;5015068;28;20212;-66
2022/11/04 12:36:47;;;;;;;0.50;0.50;;;14.60;99.90;;;;;;5012161;28;20213;-67
2022/11/04 12:39:38;;;;;;;0.60;0.60;;;14.70;99.90;;;;;;5012445;28;20237;-66
2022/11/04 12:42:16;;;;;;;0.70;0.70;;;14.70;99.90;;;;;;5008483;28;20232;-66
2022/11/04 12:44:51;;;;;;;1.13;1.13;;;14.70;99.90;;;;;;5016039;28;20207;-65
2022/11/04 12:47:27;;;;;;;0.70;0.70;;;14.70;99.90;;;;;;5022268;28;20663;-67
2022/11/04 12:50:31;;;;;;;0.87;0.87;;;14.70;99.90;;;;;;5018909;28;20280;-67
2022/11/04 12:53:20;;;;;;;1.10;0.73;;;14.70;99.90;;;;;;5005247;28;20208;-67
2022/11/04 12:55:58;;;;;;;1.00;0.97;;;14.70;99.90;;;;;;5015766;28;20218;-66
2022/11/04 12:58:39;;;;;;;0.67;0.67;;;14.60;99.90;;;;;;5015883;28;20555;-66
2022/11/04 13:01:11;;;;;;;0.87;0.87;;;14.50;99.90;;;;;;5009301;28;20652;-65
2022/11/04 13:03:47;;;;;;;0.77;0.77;;;14.40;99.90;;;;;;5022830;28;20425;-66
2022/11/04 13:06:18;;;;;;;0.90;0.90;;;14.40;99.90;;;;;;5011270;28;20203;-66
2022/11/04 13:08:50;;;;;;;0.60;0.60;;;14.40;99.90;;;;;;5017946;28;20200;-66
2022/11/04 13:11:24;;;;;;;0.60;0.60;;;14.50;99.90;;;;;;5025527;28;20229;-66
2022/11/04 13:13:58;;;;;;;0.77;0.77;;;14.60;99.90;;;;;;5016451;28;20228;-65
2022/11/04 13:16:28;;;;;;;0.67;0.67;;;14.70;99.90;;;;;;5025513;28;20228;-67
2022/11/04 13:18:57;;;;;;;0.60;0.57;;;14.70;99.90;;;;;;5025169;28;20213;-66
2022/11/04 13:21:27;;;;;;;0.73;0.73;;;14.70;99.90;;;;;;5028492;28;20308;-67
2022/11/04 13:23:58;;;;;;;0.40;0.40;;;14.70;99.90;;;;;;5016338;28;20213;-66
2022/11/04 13:26:25;;;;;;;0.40;0.40;;;14.80;99.90;;;;;;5029000;28;20230;-65
2022/11/04 13:28:59;;;;;;;0.40;0.40;;;14.80;99.90;;;;;;5015455;28;20202;-66
2022/11/04 13:31:38;;;;;;;0.40;0.40;;;14.90;99.90;;;;;;5003884;28;20217;-66
2022/11/04 13:34:12;;;;;;;0.50;0.50;;;15.00;99.90;;;;;;5015904;28;20344;-67
2022/11/04 13:36:45;;;;;;;0.57;0.57;;;14.90;99.90;;;;;;5019233;28;20208;-67
2022/11/04 13:39:18;;;;;;;0.67;0.67;;;14.90;99.90;;;;;;5013754;28;20691;-67